Time;durP1;ratioP1;P1;durP2;ratioP2;P2;SDS_P1;SDS_P2;PMS_P1;PMS_P2;Temp;Humidity;BMP_temperature;BMP_pressure;BME280_temperature;BME280_humidity;BME280_pressure;Samples;Min_cycle;Max_cycle;Signal;HPM_P1;HPM_P2
2021/12/04 00:02:21;;;;;;;21.07;15.10;;;;;;;;;;4989629;28;20484;-81
2021/12/04 00:04:50;;;;;;;20.97;15.73;;;;;;;;;;4988924;28;20485;-81
2021/12/04 00:07:17;;;;;;;23.10;15.33;;;;;;;;;;4987977;28;20467;-81
2021/12/04 00:09:45;;;;;;;21.10;15.30;;;;;;;;;;4988931;28;20497;-80
2021/12/04 00:12:12;;;;;;;19.87;13.70;;;;;;;;;;4989161;28;20471;-81
2021/12/04 00:14:38;;;;;;;25.50;15.47;;;;;;;;;;4990958;28;20450;-81
2021/12/04 00:17:05;;;;;;;28.40;18.37;;;;;;;;;;4989440;28;21083;-81
2021/12/04 00:19:32;;;;;;;26.17;17.23;;;;;;;;;;4988842;28;20466;-81
2021/12/04 00:21:59;;;;;;;23.53;16.87;;;;;;;;;;4987713;28;20486;-80
2021/12/04 00:24:26;;;;;;;24.77;17.60;;;;;;;;;;4988005;28;20452;-81
2021/12/04 00:26:54;;;;;;;23.97;17.33;;;;;;;;;;4987610;28;20487;-81
2021/12/04 00:29:20;;;;;;;25.17;17.50;;;;;;;;;;4988660;28;20538;-81
2021/12/04 00:31:50;;;;;;;28.00;19.10;;;;;;;;;;4988408;28;20510;-81
2021/12/04 00:34:16;;;;;;;29.17;19.27;;;;;;;;;;4988802;28;21038;-82
2021/12/04 00:36:58;;;;;;;29.27;20.07;;;;;;;;;;4988415;28;20474;-79
2021/12/04 00:50:21;;;;;;;29.97;20.10;;;;;;;;;;4990027;28;20474;-81
2021/12/04 00:52:47;;;;;;;28.83;20.50;;;;;;;;;;4988639;28;20540;-81
2021/12/04 00:55:13;;;;;;;29.53;20.67;;;;;;;;;;4987544;28;20458;-81
2021/12/04 00:57:41;;;;;;;28.80;19.03;;;;;;;;;;4988754;28;20486;-81
2021/12/04 01:00:08;;;;;;;29.67;20.70;;;;;;;;;;4985962;28;20472;-81
2021/12/04 01:02:34;;;;;;;31.13;19.20;;;;;;;;;;4988389;28;20509;-81
2021/12/04 01:05:01;;;;;;;28.70;19.37;;;;;;;;;;4988524;28;20525;-81
2021/12/04 01:07:27;;;;;;;28.80;19.27;;;;;;;;;;4988929;28;20497;-81
2021/12/04 01:09:53;;;;;;;39.17;20.20;;;;;;;;;;5004795;22;20493;-82
2021/12/04 01:12:20;;;;;;;29.27;18.63;;;;;;;;;;5001764;28;20469;-83
2021/12/04 01:14:48;;;;;;;27.70;19.37;;;;;;;;;;5001769;28;20550;-82
2021/12/04 01:17:14;;;;;;;28.97;19.37;;;;;;;;;;5001043;28;20959;-81
2021/12/04 01:19:40;;;;;;;33.40;18.80;;;;;;;;;;5000695;28;20501;-82
2021/12/04 01:22:07;;;;;;;34.27;21.17;;;;;;;;;;5000008;28;20474;-81
2021/12/04 01:24:33;;;;;;;31.90;21.27;;;;;;;;;;5001178;28;20963;-82
2021/12/04 01:26:59;;;;;;;32.87;19.90;;;;;;;;;;5001748;28;20493;-83
2021/12/04 01:29:26;;;;;;;30.80;19.60;;;;;;;;;;5002382;28;20549;-84
2021/12/04 01:31:53;;;;;;;34.43;21.07;;;;;;;;;;5002605;28;20506;-84
2021/12/04 01:34:19;;;;;;;31.47;19.13;;;;;;;;;;5002668;28;20489;-83
2021/12/04 01:36:46;;;;;;;32.80;19.80;;;;;;;;;;5000717;28;20535;-84
2021/12/04 01:39:12;;;;;;;30.77;20.97;;;;;;;;;;5001279;28;20505;-82
2021/12/04 01:41:39;;;;;;;37.37;21.57;;;;;;;;;;5002579;28;20481;-83
2021/12/04 01:44:05;;;;;;;33.47;21.37;;;;;;;;;;4998632;28;20462;-83
2021/12/04 01:46:32;;;;;;;32.60;21.23;;;;;;;;;;5001612;28;21016;-82
2021/12/04 01:49:00;;;;;;;38.30;22.07;;;;;;;;;;5001743;28;20448;-84
2021/12/04 01:51:26;;;;;;;33.07;22.30;;;;;;;;;;5002321;28;20473;-83
2021/12/04 01:53:52;;;;;;;38.50;23.73;;;;;;;;;;5004709;28;20543;-82
2021/12/04 01:56:19;;;;;;;36.13;23.00;;;;;;;;;;5005945;28;20470;-82
2021/12/04 01:58:45;;;;;;;35.37;21.87;;;;;;;;;;5004763;28;20904;-82
2021/12/04 02:01:11;;;;;;;33.37;21.93;;;;;;;;;;5001335;28;20549;-83
2021/12/04 02:03:38;;;;;;;36.63;22.33;;;;;;;;;;5003453;28;20461;-84
2021/12/04 02:06:05;;;;;;;39.93;24.47;;;;;;;;;;5005304;28;21757;-81
2021/12/04 02:08:32;;;;;;;35.30;21.70;;;;;;;;;;5005764;28;20501;-82
2021/12/04 02:10:59;;;;;;;42.73;23.10;;;;;;;;;;5004782;28;20516;-86
2021/12/04 02:13:25;;;;;;;36.70;22.67;;;;;;;;;;5005151;28;20490;-84
2021/12/04 02:15:51;;;;;;;42.30;23.20;;;;;;;;;;5005836;28;20486;-84
2021/12/04 02:18:18;;;;;;;40.13;24.00;;;;;;;;;;5001735;28;20454;-83
2021/12/04 02:20:46;;;;;;;33.97;21.30;;;;;;;;;;5004338;28;20488;-83
2021/12/04 02:23:12;;;;;;;35.73;21.97;;;;;;;;;;5004137;28;20520;-83
2021/12/04 02:25:38;;;;;;;35.17;22.63;;;;;;;;;;5004191;28;20470;-83
2021/12/04 02:28:05;;;;;;;37.10;24.13;;;;;;;;;;5005700;28;20449;-85
2021/12/04 02:30:35;;;;;;;37.27;23.50;;;;;;;;;;5004633;28;20545;-84
2021/12/04 02:33:05;;;;;;;35.97;22.63;;;;;;;;;;5006234;28;20601;-82
2021/12/04 02:35:32;;;;;;;33.67;22.20;;;;;;;;;;5004971;28;20482;-83
2021/12/04 02:38:01;;;;;;;37.93;22.87;;;;;;;;;;5005422;28;20473;-84
2021/12/04 02:40:27;;;;;;;38.23;22.90;;;;;;;;;;5004435;28;20481;-84
2021/12/04 02:42:53;;;;;;;34.27;22.30;;;;;;;;;;5005543;28;20461;-83
2021/12/04 02:45:20;;;;;;;30.23;19.93;;;;;;;;;;5004778;28;20474;-84
2021/12/04 02:47:46;;;;;;;37.43;23.70;;;;;;;;;;5003844;28;20464;-82
2021/12/04 02:50:13;;;;;;;32.47;21.47;;;;;;;;;;5005212;28;20481;-82
2021/12/04 02:52:40;;;;;;;42.97;26.13;;;;;;;;;;5004839;28;20465;-80
2021/12/04 02:55:08;;;;;;;30.47;20.73;;;;;;;;;;5004900;28;20964;-81
2021/12/04 02:57:39;;;;;;;33.80;22.30;;;;;;;;;;5000548;28;20820;-83
2021/12/04 03:00:06;;;;;;;35.80;20.80;;;;;;;;;;5003751;28;20560;-82
2021/12/04 03:02:32;;;;;;;32.97;20.87;;;;;;;;;;5004360;28;21102;-82
2021/12/04 03:05:01;;;;;;;33.13;22.53;;;;;;;;;;5004157;28;20470;-84
2021/12/04 03:07:27;;;;;;;32.73;20.80;;;;;;;;;;5005313;28;20548;-83
2021/12/04 03:09:54;;;;;;;32.50;20.47;;;;;;;;;;5000107;28;20497;-82
2021/12/04 03:12:23;;;;;;;35.93;21.80;;;;;;;;;;5004806;28;20462;-81
2021/12/04 03:14:50;;;;;;;34.07;20.33;;;;;;;;;;5004109;28;20870;-83
2021/12/04 03:17:19;;;;;;;35.60;21.83;;;;;;;;;;5004574;28;20442;-84
2021/12/04 03:19:45;;;;;;;33.00;19.63;;;;;;;;;;5003989;28;20552;-84
2021/12/04 03:22:14;;;;;;;30.27;20.30;;;;;;;;;;5001889;28;20478;-83
2021/12/04 03:24:42;;;;;;;29.73;20.13;;;;;;;;;;5004346;28;21017;-83
2021/12/04 03:27:08;;;;;;;31.37;20.80;;;;;;;;;;5000750;28;20478;-82
2021/12/04 03:29:40;;;;;;;32.30;21.00;;;;;;;;;;5004431;28;20848;-82
2021/12/04 03:32:20;;;;;;;30.00;20.23;;;;;;;;;;5004872;28;20512;-83
2021/12/04 03:43:04;;;;;;;39.73;23.80;;;;;;;;;;5003359;28;20573;-83
2021/12/04 03:45:34;;;;;;;37.90;23.10;;;;;;;;;;5003623;28;20903;-83
2021/12/04 03:48:06;;;;;;;35.73;22.40;;;;;;;;;;5002537;28;20527;-82
2021/12/04 03:50:33;;;;;;;37.30;23.60;;;;;;;;;;5002841;28;20488;-83
2021/12/04 03:52:59;;;;;;;39.93;26.27;;;;;;;;;;5003174;28;20857;-84
2021/12/04 03:55:25;;;;;;;41.73;25.73;;;;;;;;;;5001763;28;21064;-83
2021/12/04 03:57:51;;;;;;;46.60;25.57;;;;;;;;;;5002231;28;20449;-82
2021/12/04 04:00:18;;;;;;;43.93;25.50;;;;;;;;;;5003438;28;20477;-84
2021/12/04 04:02:46;;;;;;;40.67;25.17;;;;;;;;;;5004369;28;20538;-83
2021/12/04 04:05:12;;;;;;;46.47;28.00;;;;;;;;;;5001787;28;20482;-84
2021/12/04 04:07:39;;;;;;;43.20;26.73;;;;;;;;;;5001640;28;20527;-83
2021/12/04 04:10:06;;;;;;;46.63;26.30;;;;;;;;;;5000771;28;20548;-84
2021/12/04 04:12:32;;;;;;;45.30;25.37;;;;;;;;;;5000495;28;20573;-83
2021/12/04 04:14:58;;;;;;;41.10;26.60;;;;;;;;;;5000541;28;21004;-83
2021/12/04 04:17:26;;;;;;;48.07;27.03;;;;;;;;;;5001887;28;20874;-82
2021/12/04 04:19:54;;;;;;;44.27;26.00;;;;;;;;;;5002414;28;20502;-81
2021/12/04 04:22:20;;;;;;;41.17;25.23;;;;;;;;;;5002662;28;20454;-83
2021/12/04 04:24:46;;;;;;;41.57;26.37;;;;;;;;;;5001777;28;20470;-84
2021/12/04 04:27:12;;;;;;;42.23;26.63;;;;;;;;;;5001477;28;20884;-83
2021/12/04 04:29:39;;;;;;;44.70;25.10;;;;;;;;;;5000256;28;20516;-82
2021/12/04 04:32:05;;;;;;;43.13;26.50;;;;;;;;;;5001455;28;20466;-84
2021/12/04 04:34:33;;;;;;;45.37;28.47;;;;;;;;;;5001979;28;20493;-85
2021/12/04 04:37:15;;;;;;;45.00;27.10;;;;;;;;;;5002343;28;20469;-83
2021/12/04 04:59:09;;;;;;;49.33;29.00;;;;;;;;;;5001698;28;20477;-83
2021/12/04 05:12:47;;;;;;;46.37;28.30;;;;;;;;;;5001351;28;20441;-85
2021/12/04 05:15:16;;;;;;;50.47;30.30;;;;;;;;;;5001768;28;20477;-85
2021/12/04 05:17:54;;;;;;;52.13;30.77;;;;;;;;;;5001847;28;20461;-82
2021/12/04 05:20:24;;;;;;;54.87;31.60;;;;;;;;;;5000994;28;20560;-83
2021/12/04 05:22:50;;;;;;;49.97;29.23;;;;;;;;;;5001548;28;20536;-86
2021/12/04 05:25:18;;;;;;;53.17;31.17;;;;;;;;;;4999581;28;20469;-83
2021/12/04 05:27:44;;;;;;;54.37;30.30;;;;;;;;;;5000679;28;20507;-85
2021/12/04 05:30:11;;;;;;;53.10;30.23;;;;;;;;;;5001756;28;20470;-82
2021/12/04 05:32:37;;;;;;;58.63;32.77;;;;;;;;;;5001650;28;20461;-84
2021/12/04 05:35:03;;;;;;;60.13;32.60;;;;;;;;;;5001605;28;20532;-85
2021/12/04 05:37:30;;;;;;;53.43;31.03;;;;;;;;;;5001675;28;20461;-83
2021/12/04 05:39:56;;;;;;;48.53;29.57;;;;;;;;;;5001883;28;20493;-83
2021/12/04 05:42:24;;;;;;;48.50;30.03;;;;;;;;;;5002075;28;20450;-82
2021/12/04 05:44:50;;;;;;;52.83;31.10;;;;;;;;;;4998942;28;20474;-83
2021/12/04 05:47:20;;;;;;;52.73;29.87;;;;;;;;;;5002235;28;20449;-82
2021/12/04 05:49:55;;;;;;;56.60;33.43;;;;;;;;;;5001798;28;20988;-82
2021/12/04 05:52:34;;;;;;;58.90;33.03;;;;;;;;;;5001467;28;21007;-82
2021/12/04 05:55:12;;;;;;;53.23;32.27;;;;;;;;;;5000115;28;20572;-82
2021/12/04 05:57:40;;;;;;;55.83;33.30;;;;;;;;;;5002219;28;20548;-83
2021/12/04 06:00:07;;;;;;;56.20;32.07;;;;;;;;;;4999612;28;20841;-84
2021/12/04 06:02:33;;;;;;;57.80;32.20;;;;;;;;;;5001944;28;20446;-83
2021/12/04 06:04:59;;;;;;;53.77;30.50;;;;;;;;;;5002039;28;20459;-84
2021/12/04 06:07:26;;;;;;;57.17;31.40;;;;;;;;;;5001508;28;20512;-83
2021/12/04 06:09:52;;;;;;;61.80;34.17;;;;;;;;;;5000789;28;20485;-84
2021/12/04 06:12:18;;;;;;;58.47;32.73;;;;;;;;;;5001269;28;20449;-83
2021/12/04 06:14:48;;;;;;;59.17;33.20;;;;;;;;;;4999958;28;20548;-83
2021/12/04 06:17:15;;;;;;;55.97;32.83;;;;;;;;;;5001814;28;20465;-82
2021/12/04 06:22:41;;;;;;;59.77;31.70;;;;;;;;;;5000967;28;21106;-82
2021/12/04 06:25:08;;;;;;;59.70;31.57;;;;;;;;;;5001112;28;20465;-82
2021/12/04 06:27:34;;;;;;;65.70;33.77;;;;;;;;;;5003392;28;20458;-84
2021/12/04 06:30:02;;;;;;;62.90;34.10;;;;;;;;;;5004358;28;20540;-82
2021/12/04 06:32:28;;;;;;;54.43;31.50;;;;;;;;;;4997720;28;20497;-82
2021/12/04 06:34:54;;;;;;;65.73;36.00;;;;;;;;;;4999104;28;20540;-82
2021/12/04 06:37:20;;;;;;;60.00;32.40;;;;;;;;;;5003054;28;20462;-84
2021/12/04 06:39:47;;;;;;;59.17;32.63;;;;;;;;;;5004279;28;20482;-83
2021/12/04 06:42:13;;;;;;;56.03;32.20;;;;;;;;;;5007545;28;20968;-82
2021/12/04 06:44:39;;;;;;;59.50;32.73;;;;;;;;;;5005751;28;20889;-86
2021/12/04 06:47:07;;;;;;;62.50;33.63;;;;;;;;;;5006867;28;20457;-82
2021/12/04 06:49:36;;;;;;;57.57;33.27;;;;;;;;;;5003655;28;20481;-82
2021/12/04 06:52:05;;;;;;;61.80;32.33;;;;;;;;;;5006770;28;20544;-83
2021/12/04 06:54:35;;;;;;;56.90;32.60;;;;;;;;;;5006003;28;20481;-82
2021/12/04 06:57:03;;;;;;;56.13;32.90;;;;;;;;;;5003069;28;20973;-85
2021/12/04 06:59:31;;;;;;;64.77;33.27;;;;;;;;;;5001868;28;20508;-84
2021/12/04 07:01:58;;;;;;;57.27;31.53;;;;;;;;;;5005961;28;20512;-84
2021/12/04 07:04:29;;;;;;;62.93;32.57;;;;;;;;;;5005138;28;20471;-82
2021/12/04 07:06:56;;;;;;;57.20;34.23;;;;;;;;;;5005832;28;20469;-85
2021/12/04 07:09:22;;;;;;;56.20;31.53;;;;;;;;;;5005651;28;20473;-82
2021/12/04 07:11:48;;;;;;;61.03;32.03;;;;;;;;;;5029069;22;21003;-85
2021/12/04 07:14:14;;;;;;;58.80;31.60;;;;;;;;;;5004835;28;20555;-85
2021/12/04 07:16:41;;;;;;;62.03;32.57;;;;;;;;;;5002461;28;20903;-84
2021/12/04 07:19:07;;;;;;;58.70;32.03;;;;;;;;;;4998949;28;20470;-85
2021/12/04 07:21:35;;;;;;;60.60;32.47;;;;;;;;;;5004356;28;20474;-85
2021/12/04 07:24:01;;;;;;;65.93;34.33;;;;;;;;;;4999284;28;20470;-86
2021/12/04 07:26:27;;;;;;;63.07;33.27;;;;;;;;;;5005556;28;20472;-85
2021/12/04 07:28:53;;;;;;;67.63;32.80;;;;;;;;;;5001820;28;21006;-85
2021/12/04 07:31:20;;;;;;;59.77;31.83;;;;;;;;;;5004031;28;20470;-85
2021/12/04 07:33:46;;;;;;;57.87;33.33;;;;;;;;;;5002933;28;21011;-85
2021/12/04 07:36:13;;;;;;;59.97;32.67;;;;;;;;;;5003229;28;20852;-85
2021/12/04 07:38:40;;;;;;;64.20;34.53;;;;;;;;;;4999666;28;20470;-85
2021/12/04 07:41:08;;;;;;;58.60;31.77;;;;;;;;;;5003140;28;20466;-84
2021/12/04 07:43:34;;;;;;;71.27;32.20;;;;;;;;;;5003136;28;20489;-85
2021/12/04 07:46:00;;;;;;;61.77;32.10;;;;;;;;;;5000042;28;20466;-84
2021/12/04 07:48:27;;;;;;;56.20;33.13;;;;;;;;;;4996845;28;20485;-85
2021/12/04 07:50:53;;;;;;;59.57;33.10;;;;;;;;;;5000957;28;20509;-84
2021/12/04 07:53:20;;;;;;;58.07;31.70;;;;;;;;;;5001392;28;20462;-85
2021/12/04 07:55:48;;;;;;;57.93;32.33;;;;;;;;;;5001567;28;20539;-85
2021/12/04 07:58:14;;;;;;;58.50;31.37;;;;;;;;;;5005317;28;20972;-85
2021/12/04 08:00:41;;;;;;;56.73;31.47;;;;;;;;;;5002736;28;20504;-85
2021/12/04 08:03:07;;;;;;;60.63;31.13;;;;;;;;;;5008141;28;20451;-85
2021/12/04 08:05:33;;;;;;;58.83;30.20;;;;;;;;;;5008892;28;20963;-86
2021/12/04 08:08:01;;;;;;;57.67;30.53;;;;;;;;;;5008556;28;20512;-86
2021/12/04 08:10:27;;;;;;;59.80;31.67;;;;;;;;;;5010844;28;20536;-86
2021/12/04 08:12:55;;;;;;;56.23;32.10;;;;;;;;;;5009084;28;20453;-86
2021/12/04 08:15:22;;;;;;;59.07;30.53;;;;;;;;;;5013078;28;20982;-85
2021/12/04 08:17:48;;;;;;;63.70;33.30;;;;;;;;;;5001344;28;20458;-84
2021/12/04 08:20:15;;;;;;;56.20;33.17;;;;;;;;;;5007184;28;20474;-84
2021/12/04 08:22:42;;;;;;;51.43;30.30;;;;;;;;;;5006264;28;20477;-85
2021/12/04 08:25:09;;;;;;;53.93;30.67;;;;;;;;;;5002703;28;20474;-86
2021/12/04 08:27:35;;;;;;;55.90;30.57;;;;;;;;;;5005457;28;20517;-85
2021/12/04 08:30:04;;;;;;;54.37;31.40;;;;;;;;;;5005420;28;20473;-85
2021/12/04 08:32:30;;;;;;;54.03;30.20;;;;;;;;;;5003812;28;20466;-86
2021/12/04 08:34:56;;;;;;;46.63;27.10;;;;;;;;;;5006752;28;20527;-86
2021/12/04 08:37:23;;;;;;;51.20;30.67;;;;;;;;;;5006252;28;20553;-86
2021/12/04 08:39:49;;;;;;;45.10;26.47;;;;;;;;;;5006872;28;21086;-86
2021/12/04 08:42:16;;;;;;;49.00;27.97;;;;;;;;;;5003000;28;21022;-86
2021/12/04 08:44:43;;;;;;;48.97;27.90;;;;;;;;;;5006465;28;20469;-85
2021/12/04 08:47:11;;;;;;;48.67;25.90;;;;;;;;;;5005562;28;20453;-85
2021/12/04 08:49:37;;;;;;;47.67;26.73;;;;;;;;;;5003559;28;21077;-85
2021/12/04 08:52:04;;;;;;;49.90;26.40;;;;;;;;;;5005626;28;20589;-85
2021/12/04 08:54:31;;;;;;;45.90;25.73;;;;;;;;;;5004151;28;20484;-86
2021/12/04 08:56:58;;;;;;;46.90;26.00;;;;;;;;;;5003965;28;20463;-86
2021/12/04 08:59:24;;;;;;;42.03;23.23;;;;;;;;;;5005341;28;20518;-86
2021/12/04 09:01:50;;;;;;;43.17;25.83;;;;;;;;;;5004781;28;20504;-86
2021/12/04 09:04:19;;;;;;;44.37;25.90;;;;;;;;;;5005160;28;20486;-86
2021/12/04 09:06:46;;;;;;;47.90;24.87;;;;;;;;;;5003721;28;20450;-85
2021/12/04 09:09:13;;;;;;;41.20;23.73;;;;;;;;;;5005828;28;20516;-86
2021/12/04 09:11:44;;;;;;;42.03;25.50;;;;;;;;;;5003928;28;20490;-85
2021/12/04 09:14:11;;;;;;;41.50;24.63;;;;;;;;;;5001619;28;21203;-86
2021/12/04 09:16:37;;;;;;;37.70;21.87;;;;;;;;;;5005574;28;20485;-85
2021/12/04 09:19:04;;;;;;;37.10;22.83;;;;;;;;;;5007009;28;20847;-87
2021/12/04 09:21:33;;;;;;;40.93;23.17;;;;;;;;;;5006889;28;20486;-86
2021/12/04 09:24:06;;;;;;;42.20;22.43;;;;;;;;;;5006071;28;20508;-86
2021/12/04 09:26:40;;;;;;;43.17;23.93;;;;;;;;;;5007777;28;20486;-86
2021/12/04 09:29:13;;;;;;;45.23;23.90;;;;;;;;;;5006169;28;20493;-86
2021/12/04 09:59:42;;;;;;;38.70;23.30;;;;;;;;;;5005247;28;20484;-86
2021/12/04 10:02:19;;;;;;;34.43;21.40;;;;;;;;;;5007770;28;20553;-86
2021/12/04 10:05:14;;;;;;;34.40;22.20;;;;;;;;;;5006349;28;21796;-86
2021/12/04 10:13:34;;;;;;;32.33;20.77;;;;;;;;;;4985865;28;21033;-86
2021/12/04 10:16:24;;;;;;;34.23;20.87;;;;;;;;;;5010508;28;20482;-87
2021/12/04 10:19:02;;;;;;;35.93;21.77;;;;;;;;;;5010028;28;21021;-86
2021/12/04 10:21:54;;;;;;;37.33;21.73;;;;;;;;;;5011433;28;20491;-87
2021/12/04 10:24:36;;;;;;;42.30;23.00;;;;;;;;;;5010583;28;20478;-86
2021/12/04 10:32:40;;;;;;;44.63;23.57;;;;;;;;;;5009977;28;20452;-86
2021/12/04 10:35:08;;;;;;;34.57;21.20;;;;;;;;;;5009733;28;21011;-86
2021/12/04 10:37:37;;;;;;;48.70;25.90;;;;;;;;;;5010366;28;21022;-87
2021/12/04 10:40:05;;;;;;;38.10;22.70;;;;;;;;;;5018327;28;20497;-86
2021/12/04 10:42:44;;;;;;;36.90;21.33;;;;;;;;;;5008894;28;20447;-86
2021/12/04 10:45:10;;;;;;;36.63;21.43;;;;;;;;;;5008024;28;20531;-87
2021/12/04 10:47:36;;;;;;;36.47;22.83;;;;;;;;;;5010112;28;20459;-87
2021/12/04 10:50:18;;;;;;;42.03;25.40;;;;;;;;;;5006210;28;21133;-86
2021/12/04 10:52:51;;;;;;;35.87;22.83;;;;;;;;;;5007081;28;20476;-86
2021/12/04 10:55:22;;;;;;;40.70;23.70;;;;;;;;;;5005450;28;20492;-87
2021/12/04 11:00:45;;;;;;;43.20;22.73;;;;;;;;;;4998038;28;20528;-86
2021/12/04 11:03:24;;;;;;;38.90;23.23;;;;;;;;;;5007156;28;20457;-86
2021/12/04 11:06:31;;;;;;;41.50;24.43;;;;;;;;;;5008560;28;20461;-86
2021/12/04 11:20:27;;;;;;;43.47;25.10;;;;;;;;;;5007769;28;21436;-86
2021/12/04 11:23:06;;;;;;;45.10;24.50;;;;;;;;;;5006994;28;20462;-87
2021/12/04 11:28:30;;;;;;;37.53;22.83;;;;;;;;;;5007374;28;20445;-86
2021/12/04 11:36:37;;;;;;;42.00;24.77;;;;;;;;;;5007025;28;20528;-86
2021/12/04 11:41:58;;;;;;;40.90;24.80;;;;;;;;;;5004284;28;20833;-86
2021/12/04 11:44:28;;;;;;;44.27;24.40;;;;;;;;;;5004271;28;20569;-86
2021/12/04 11:46:57;;;;;;;41.90;22.93;;;;;;;;;;5002910;28;20565;-86
2021/12/04 11:49:25;;;;;;;38.40;22.20;;;;;;;;;;5002040;28;21002;-86
2021/12/04 11:51:57;;;;;;;40.03;22.10;;;;;;;;;;5005087;28;20477;-86
2021/12/04 11:54:23;;;;;;;37.27;23.03;;;;;;;;;;5005947;28;20476;-86
2021/12/04 11:56:57;;;;;;;39.30;21.37;;;;;;;;;;5006434;28;20477;-85
2021/12/04 11:59:26;;;;;;;35.70;21.77;;;;;;;;;;5009341;28;20542;-86
2021/12/04 12:01:57;;;;;;;35.10;21.17;;;;;;;;;;5002655;28;20481;-87
2021/12/04 12:04:31;;;;;;;34.30;22.50;;;;;;;;;;5003607;28;20474;-87
2021/12/04 12:06:58;;;;;;;41.23;25.17;;;;;;;;;;5002546;28;20509;-86
2021/12/04 12:09:27;;;;;;;34.00;22.17;;;;;;;;;;5001799;28;21019;-86
2021/12/04 12:11:55;;;;;;;44.87;23.90;;;;;;;;;;5003279;28;20560;-86
2021/12/04 12:14:23;;;;;;;33.90;21.10;;;;;;;;;;5003075;28;20470;-86
2021/12/04 12:16:50;;;;;;;39.73;23.17;;;;;;;;;;5003072;28;20888;-87
2021/12/04 12:19:27;;;;;;;46.07;25.43;;;;;;;;;;5002627;28;20470;-86
2021/12/04 12:21:57;;;;;;;41.67;23.20;;;;;;;;;;5001854;28;20481;-87
2021/12/04 12:24:55;;;;;;;36.73;22.13;;;;;;;;;;5000746;28;20490;-87
2021/12/04 12:27:35;;;;;;;41.80;22.60;;;;;;;;;;5001498;28;20540;-86
2021/12/04 12:33:03;;;;;;;35.00;21.10;;;;;;;;;;5004277;28;21071;-87
2021/12/04 12:38:17;;;;;;;39.80;22.67;;;;;;;;;;5010962;28;20466;-85
2021/12/04 12:40:56;;;;;;;31.57;21.43;;;;;;;;;;5016065;28;20482;-85
2021/12/04 12:43:22;;;;;;;40.93;22.40;;;;;;;;;;5006162;28;20490;-85
2021/12/04 12:45:52;;;;;;;39.83;21.17;;;;;;;;;;5006804;28;20463;-85
2021/12/04 12:48:19;;;;;;;37.20;21.53;;;;;;;;;;5004959;28;20464;-85
2021/12/04 12:50:47;;;;;;;37.50;21.83;;;;;;;;;;5006464;28;20539;-84
2021/12/04 12:53:15;;;;;;;38.07;21.40;;;;;;;;;;5004864;28;20457;-84
2021/12/04 12:55:42;;;;;;;33.80;21.97;;;;;;;;;;5003196;28;20863;-86
2021/12/04 12:58:13;;;;;;;34.37;21.90;;;;;;;;;;5004876;28;20458;-84
2021/12/04 13:11:44;;;;;;;31.97;19.97;;;;;;;;;;5020445;22;20501;-79
2021/12/04 13:14:12;;;;;;;30.73;20.27;;;;;;;;;;5005344;28;20888;-80
2021/12/04 13:16:38;;;;;;;32.23;20.87;;;;;;;;;;5005541;28;20478;-80
2021/12/04 13:19:09;;;;;;;28.70;18.87;;;;;;;;;;5004730;28;20462;-80
2021/12/04 13:21:39;;;;;;;29.50;19.60;;;;;;;;;;5002429;28;20628;-80
2021/12/04 13:24:06;;;;;;;30.43;21.10;;;;;;;;;;5004174;28;20501;-80
2021/12/04 13:26:34;;;;;;;27.00;20.17;;;;;;;;;;5006871;28;20458;-79
2021/12/04 13:29:03;;;;;;;28.80;19.70;;;;;;;;;;5002906;28;20481;-79
2021/12/04 13:31:29;;;;;;;28.80;21.10;;;;;;;;;;5005478;28;20501;-81
2021/12/04 13:33:56;;;;;;;35.03;20.10;;;;;;;;;;5004970;28;20529;-80
2021/12/04 13:36:24;;;;;;;32.20;20.70;;;;;;;;;;5002215;28;20544;-79
2021/12/04 13:38:58;;;;;;;30.17;18.77;;;;;;;;;;5003888;28;20798;-80
2021/12/04 13:41:25;;;;;;;32.27;21.60;;;;;;;;;;5005280;28;20473;-80
2021/12/04 13:43:52;;;;;;;30.90;20.10;;;;;;;;;;5002719;28;20888;-80
2021/12/04 13:46:18;;;;;;;25.60;19.13;;;;;;;;;;5005612;28;20462;-79
2021/12/04 13:48:44;;;;;;;28.17;20.50;;;;;;;;;;4998842;28;20478;-82
2021/12/04 13:51:11;;;;;;;27.03;20.10;;;;;;;;;;5006181;28;20497;-80
2021/12/04 13:53:38;;;;;;;28.90;19.50;;;;;;;;;;5007439;28;20478;-80
2021/12/04 13:56:07;;;;;;;26.87;19.70;;;;;;;;;;5009851;28;20990;-80
2021/12/04 13:58:34;;;;;;;27.97;18.87;;;;;;;;;;5005465;28;20476;-80
2021/12/04 14:01:00;;;;;;;29.20;20.03;;;;;;;;;;5009064;28;20478;-80
2021/12/04 14:03:28;;;;;;;32.73;20.07;;;;;;;;;;5009405;28;20856;-80
2021/12/04 14:05:54;;;;;;;29.37;21.17;;;;;;;;;;5006820;28;20469;-80
2021/12/04 14:08:21;;;;;;;27.40;19.70;;;;;;;;;;5006138;28;20486;-80
2021/12/04 14:10:49;;;;;;;27.50;20.13;;;;;;;;;;5007752;28;20500;-79
2021/12/04 14:13:17;;;;;;;30.27;20.50;;;;;;;;;;5008169;28;20496;-79
2021/12/04 14:15:45;;;;;;;29.10;21.90;;;;;;;;;;5008834;28;20466;-79
2021/12/04 14:18:12;;;;;;;31.00;20.97;;;;;;;;;;5008142;28;20502;-80
2021/12/04 14:20:39;;;;;;;31.07;20.57;;;;;;;;;;5007284;28;20543;-79
2021/12/04 14:23:05;;;;;;;30.13;19.83;;;;;;;;;;5005109;28;20458;-80
2021/12/04 14:25:31;;;;;;;30.20;21.43;;;;;;;;;;5006690;28;22361;-80
2021/12/04 14:28:00;;;;;;;32.50;20.70;;;;;;;;;;5006974;28;20484;-79
2021/12/04 14:30:31;;;;;;;33.03;22.80;;;;;;;;;;5006226;28;20474;-80
2021/12/04 14:32:58;;;;;;;31.47;21.17;;;;;;;;;;5005761;28;20504;-80
2021/12/04 14:35:28;;;;;;;24.60;17.90;;;;;;;;;;5005502;28;20482;-79
2021/12/04 14:37:56;;;;;;;26.33;18.70;;;;;;;;;;5007980;28;20949;-80
2021/12/04 14:40:25;;;;;;;27.83;20.33;;;;;;;;;;5006979;28;20512;-80
2021/12/04 14:42:51;;;;;;;23.90;17.80;;;;;;;;;;5005575;28;20454;-79
2021/12/04 14:45:20;;;;;;;31.10;21.00;;;;;;;;;;5006048;28;20478;-80
2021/12/04 14:47:49;;;;;;;26.57;19.03;;;;;;;;;;5006139;28;20522;-80
2021/12/04 14:50:16;;;;;;;27.80;19.03;;;;;;;;;;5007556;28;20469;-80
2021/12/04 14:52:43;;;;;;;28.77;18.83;;;;;;;;;;5006876;28;20470;-80
2021/12/04 14:55:13;;;;;;;25.20;18.97;;;;;;;;;;5006537;28;20862;-80
2021/12/04 14:57:40;;;;;;;24.40;17.83;;;;;;;;;;5006223;28;21096;-79
2021/12/04 15:00:10;;;;;;;27.63;19.40;;;;;;;;;;5003454;28;20525;-79
2021/12/04 15:02:36;;;;;;;27.33;18.80;;;;;;;;;;5007988;28;20887;-80
2021/12/04 15:05:05;;;;;;;28.30;19.43;;;;;;;;;;5005466;28;21014;-80
2021/12/04 15:07:33;;;;;;;27.10;19.00;;;;;;;;;;5004729;28;20484;-80
2021/12/04 15:10:00;;;;;;;24.77;18.80;;;;;;;;;;5006726;28;20624;-79
2021/12/04 15:12:27;;;;;;;30.67;21.50;;;;;;;;;;5007688;28;20501;-79
2021/12/04 15:15:02;;;;;;;28.23;20.20;;;;;;;;;;5007443;28;20755;-79
2021/12/04 15:17:28;;;;;;;24.07;17.80;;;;;;;;;;5006834;28;20573;-80
2021/12/04 15:19:59;;;;;;;26.23;20.60;;;;;;;;;;5005104;28;20477;-80
2021/12/04 15:22:32;;;;;;;26.60;18.73;;;;;;;;;;5011291;28;20474;-79
2021/12/04 15:24:58;;;;;;;28.63;18.73;;;;;;;;;;5008985;28;20466;-80
2021/12/04 15:27:27;;;;;;;30.20;20.30;;;;;;;;;;5011521;28;20446;-80
2021/12/04 15:29:54;;;;;;;29.00;20.70;;;;;;;;;;5002880;28;20477;-79
2021/12/04 15:32:22;;;;;;;26.50;20.03;;;;;;;;;;5003116;28;20969;-80
2021/12/04 15:34:52;;;;;;;27.87;20.80;;;;;;;;;;5004484;28;20506;-81
2021/12/04 15:37:28;;;;;;;27.00;20.13;;;;;;;;;;5002566;28;20517;-80
2021/12/04 15:39:54;;;;;;;25.77;18.90;;;;;;;;;;5005215;28;20957;-80
2021/12/04 15:42:30;;;;;;;28.73;19.50;;;;;;;;;;5006014;28;20482;-80
2021/12/04 15:45:07;;;;;;;31.73;20.97;;;;;;;;;;5005205;28;20470;-80
2021/12/04 15:47:40;;;;;;;31.23;19.00;;;;;;;;;;5003143;28;20549;-81
2021/12/04 15:52:59;;;;;;;27.60;21.27;;;;;;;;;;4999777;28;20462;-80
2021/12/04 15:55:30;;;;;;;25.83;20.33;;;;;;;;;;5002340;28;20482;-81
2021/12/04 15:57:58;;;;;;;26.30;19.00;;;;;;;;;;5002265;28;20521;-84
2021/12/04 16:00:25;;;;;;;28.23;20.27;;;;;;;;;;5004336;28;20481;-83
2021/12/04 16:02:57;;;;;;;24.97;17.60;;;;;;;;;;5004782;28;20963;-84
2021/12/04 16:05:24;;;;;;;23.50;19.60;;;;;;;;;;5001742;28;20489;-81
2021/12/04 16:08:00;;;;;;;29.70;20.10;;;;;;;;;;5003906;28;20961;-83
2021/12/04 16:10:27;;;;;;;25.90;19.50;;;;;;;;;;4996317;28;20494;-81
2021/12/04 16:12:54;;;;;;;31.27;23.00;;;;;;;;;;5003370;28;20532;-81
2021/12/04 16:15:21;;;;;;;26.57;20.23;;;;;;;;;;5004717;28;20481;-83
2021/12/04 16:17:47;;;;;;;27.80;19.43;;;;;;;;;;5004875;28;20485;-81
2021/12/04 16:20:17;;;;;;;26.47;18.97;;;;;;;;;;5006772;28;20477;-81
2021/12/04 16:22:43;;;;;;;28.67;20.97;;;;;;;;;;5005972;28;20526;-80
2021/12/04 16:25:17;;;;;;;23.97;19.13;;;;;;;;;;4986065;28;21032;-80
2021/12/04 16:27:57;;;;;;;31.90;19.30;;;;;;;;;;4984692;28;20454;-80
2021/12/04 16:30:30;;;;;;;25.93;20.30;;;;;;;;;;4981244;28;20490;-81
2021/12/04 16:33:04;;;;;;;26.87;19.43;;;;;;;;;;4985841;28;20486;-81
2021/12/04 16:35:42;;;;;;;29.33;19.63;;;;;;;;;;4983827;28;20470;-81
2021/12/04 16:38:10;;;;;;;29.23;20.83;;;;;;;;;;4982948;28;20851;-82
2021/12/04 16:40:39;;;;;;;27.20;20.53;;;;;;;;;;4983814;28;20486;-81
2021/12/04 16:43:08;;;;;;;22.70;17.27;;;;;;;;;;4982675;28;20808;-81